createdAt,value
2022-11-12T00:02:37.349Z,37.45
2022-11-12T00:05:23.769Z,36.34
2022-11-12T00:08:11.077Z,34.91
2022-11-12T00:10:58.375Z,34.38
2022-11-12T00:13:45.817Z,33.74
2022-11-12T00:16:33.048Z,34.18
2022-11-12T00:19:19.500Z,34.22
2022-11-12T00:22:06.225Z,35.56
2022-11-12T00:24:53.681Z,33.96
2022-11-12T00:27:40.539Z,33.10
2022-11-12T00:30:27.165Z,33.26
2022-11-12T00:33:13.865Z,32.70
2022-11-12T00:36:00.705Z,32.13
2022-11-12T00:38:47.403Z,32.58
2022-11-12T00:41:33.673Z,35.02
2022-11-12T00:44:20.417Z,33.39
2022-11-12T00:47:07.381Z,33.38
2022-11-12T00:49:53.776Z,33.33
2022-11-12T00:52:40.285Z,33.71
2022-11-12T00:55:26.910Z,35.57
2022-11-12T00:58:13.517Z,35.00
2022-11-12T01:01:11.855Z,34.72
2022-11-12T01:04:00.006Z,33.90
2022-11-12T01:06:46.773Z,35.41
2022-11-12T01:09:33.208Z,35.81
2022-11-12T01:12:19.835Z,34.51
2022-11-12T01:15:07.286Z,34.08
2022-11-12T01:17:54.018Z,36.56
2022-11-12T01:20:40.624Z,36.78
2022-11-12T01:23:27.210Z,37.04
2022-11-12T01:26:16.651Z,36.12
2022-11-12T01:29:03.984Z,37.26
2022-11-12T01:31:50.823Z,33.27
2022-11-12T01:34:37.150Z,31.71
2022-11-12T01:37:23.687Z,30.67
2022-11-12T01:40:11.015Z,31.44
2022-11-12T01:42:57.492Z,29.88
2022-11-12T01:45:48.381Z,30.41
2022-11-12T01:48:40.151Z,31.26
2022-11-12T01:51:35.045Z,30.60
2022-11-12T01:54:22.999Z,30.64
2022-11-12T01:57:13.229Z,51.76
2022-11-12T02:00:05.330Z,34.39
2022-11-12T02:03:00.068Z,31.78
2022-11-12T02:05:49.180Z,37.70
2022-11-12T02:08:38.081Z,38.61
2022-11-12T02:11:24.587Z,39.64
2022-11-12T02:14:11.100Z,39.89
2022-11-12T02:16:58.706Z,41.95
2022-11-12T02:19:47.031Z,42.12
2022-11-12T02:22:33.201Z,41.90
2022-11-12T02:25:23.357Z,41.17
2022-11-12T02:28:09.603Z,42.02
2022-11-12T02:30:56.143Z,43.88
2022-11-12T02:33:42.927Z,44.82
2022-11-12T02:36:30.592Z,43.17
2022-11-12T02:39:17.422Z,41.56
2022-11-12T02:42:03.924Z,37.92
2022-11-12T02:44:51.111Z,33.59
2022-11-12T02:47:37.711Z,32.34
2022-11-12T02:50:24.219Z,33.58
2022-11-12T02:53:10.992Z,33.58
2022-11-12T02:55:57.647Z,33.40
2022-11-12T02:58:44.279Z,35.94
2022-11-12T03:01:30.938Z,36.13
2022-11-12T03:04:17.779Z,35.70
2022-11-12T03:07:04.175Z,34.76
2022-11-12T03:09:50.652Z,33.90
2022-11-12T03:12:37.172Z,32.11
2022-11-12T03:15:24.173Z,31.94
2022-11-12T03:18:10.756Z,31.88
2022-11-12T03:20:57.485Z,29.84
2022-11-12T03:23:44.669Z,30.27
2022-11-12T03:26:35.555Z,28.23
2022-11-12T03:29:22.530Z,27.98
2022-11-12T03:32:09.111Z,29.09
2022-11-12T03:34:55.834Z,28.54
2022-11-12T03:37:42.739Z,28.81
2022-11-12T03:40:30.258Z,30.55
2022-11-12T03:43:16.778Z,31.84
2022-11-12T03:46:03.349Z,33.17
2022-11-12T03:48:49.923Z,34.62
2022-11-12T03:51:36.418Z,34.91
2022-11-12T03:54:22.993Z,38.48
2022-11-12T03:57:09.395Z,40.09
2022-11-12T03:59:55.988Z,41.35
2022-11-12T04:02:42.705Z,41.53
2022-11-12T04:05:47.730Z,44.91
2022-11-12T04:08:36.807Z,42.06
2022-11-12T04:11:23.581Z,40.52
2022-11-12T04:14:10.150Z,40.10
2022-11-12T04:17:15.346Z,39.54
2022-11-12T04:20:20.522Z,39.53
2022-11-12T04:23:07.075Z,39.82
2022-11-12T04:26:13.437Z,38.39
2022-11-12T04:29:18.362Z,37.62
2022-11-12T04:32:05.035Z,38.57
2022-11-12T04:34:52.425Z,37.22
2022-11-12T04:37:45.591Z,38.36
2022-11-12T04:40:58.163Z,40.91
2022-11-12T04:44:03.206Z,35.14
2022-11-12T04:46:49.535Z,34.22
2022-11-12T04:49:35.975Z,32.20
2022-11-12T04:52:22.595Z,33.11
2022-11-12T04:55:09.828Z,27.72
2022-11-12T04:58:00.560Z,27.76
2022-11-12T05:00:48.392Z,27.06
2022-11-12T05:03:34.993Z,28.54
2022-11-12T05:06:50.811Z,30.12
2022-11-12T05:09:37.833Z,31.53
2022-11-12T05:12:24.369Z,31.18
2022-11-12T05:15:12.082Z,37.45
2022-11-12T05:17:58.775Z,34.41
2022-11-12T05:20:45.316Z,34.09
2022-11-12T05:23:31.622Z,34.86
2022-11-12T05:26:17.787Z,34.46
2022-11-12T05:29:08.708Z,36.51
2022-11-12T05:31:56.480Z,37.46
2022-11-12T05:34:42.949Z,37.82
2022-11-12T05:37:29.841Z,37.80
2022-11-12T05:40:16.855Z,37.48
2022-11-12T05:43:03.285Z,37.13
2022-11-12T05:45:49.942Z,35.86
2022-11-12T05:48:36.473Z,36.97
2022-11-12T05:51:23.230Z,36.91
2022-11-12T05:54:10.000Z,36.63
2022-11-12T05:56:56.718Z,35.74
2022-11-12T05:59:42.958Z,37.59
2022-11-12T06:02:29.253Z,36.99
2022-11-12T06:05:15.660Z,38.14
2022-11-12T06:08:03.992Z,38.45
2022-11-12T06:10:52.659Z,35.01
2022-11-12T06:13:39.457Z,34.95
2022-11-12T06:16:25.701Z,36.38
2022-11-12T06:19:12.360Z,36.65
2022-11-12T06:21:59.005Z,37.10
2022-11-12T06:24:45.520Z,37.01
2022-11-12T06:27:32.308Z,38.27
2022-11-12T06:30:24.482Z,38.51
2022-11-12T06:33:12.429Z,37.56
2022-11-12T06:36:03.035Z,37.42
2022-11-12T06:38:49.708Z,39.53
2022-11-12T06:41:36.430Z,40.81
2022-11-12T06:44:23.238Z,40.15
2022-11-12T06:47:10.013Z,38.75
2022-11-12T06:49:56.650Z,41.27
2022-11-12T06:52:43.505Z,44.49
2022-11-12T06:55:29.979Z,43.98
2022-11-12T06:58:16.578Z,45.89
2022-11-12T07:01:21.368Z,44.49
2022-11-12T07:04:08.061Z,43.19
2022-11-12T07:06:54.792Z,43.15
2022-11-12T07:09:41.281Z,42.14
2022-11-12T07:12:27.962Z,45.54
2022-11-12T07:15:14.709Z,48.79
2022-11-12T07:18:01.674Z,50.17
2022-11-12T07:20:48.145Z,49.92
2022-11-12T07:23:36.251Z,50.19
2022-11-12T07:26:25.453Z,47.19
2022-11-12T07:29:24.874Z,47.50
2022-11-12T07:32:19.746Z,45.27
2022-11-12T07:35:06.993Z,43.51
2022-11-12T07:37:59.420Z,45.29
2022-11-12T07:40:46.433Z,43.06
2022-11-12T07:43:34.929Z,44.96
2022-11-12T07:46:25.047Z,40.45
2022-11-12T07:49:11.307Z,40.51
2022-11-12T07:51:57.803Z,41.53
2022-11-12T07:54:44.400Z,43.34
2022-11-12T07:57:33.133Z,42.82
2022-11-12T08:00:20.480Z,47.03
2022-11-12T08:03:06.588Z,46.00
2022-11-12T08:05:53.141Z,43.67
2022-11-12T08:08:39.606Z,40.74
2022-11-12T08:11:26.705Z,41.45
2022-11-12T08:14:13.424Z,46.04
2022-11-12T08:17:00.480Z,50.25
2022-11-12T08:19:47.806Z,40.93
2022-11-12T08:22:34.354Z,38.56
2022-11-12T08:25:21.049Z,41.83
2022-11-12T08:28:07.544Z,40.62
2022-11-12T08:30:55.275Z,41.93
2022-11-12T08:33:42.750Z,44.39
2022-11-12T08:36:29.580Z,43.12
2022-11-12T08:39:15.843Z,41.66
2022-11-12T08:42:02.424Z,43.66
2022-11-12T08:44:50.060Z,47.55
2022-11-12T08:47:36.763Z,47.74
2022-11-12T08:50:24.300Z,48.31
2022-11-12T08:53:13.405Z,47.02
2022-11-12T08:55:59.988Z,38.66
2022-11-12T08:58:46.601Z,40.28
2022-11-12T09:01:33.249Z,43.40
2022-11-12T09:04:19.762Z,46.09
2022-11-12T09:07:09.339Z,43.81
2022-11-12T09:09:56.670Z,45.37
2022-11-12T09:12:43.956Z,46.43
2022-11-12T09:15:37.327Z,44.22
2022-11-12T09:18:24.294Z,47.03
2022-11-12T09:21:12.898Z,42.02
2022-11-12T09:23:59.329Z,39.43
2022-11-12T09:26:46.476Z,39.97
2022-11-12T09:29:32.924Z,35.12
2022-11-12T09:32:19.182Z,37.05
2022-11-12T09:35:06.101Z,34.70
2022-11-12T09:37:53.104Z,33.15
2022-11-12T09:40:47.651Z,30.07
2022-11-12T09:43:40.471Z,29.17
2022-11-12T09:46:52.648Z,26.39
2022-11-12T09:49:48.988Z,22.91
2022-11-12T09:52:37.370Z,22.81
2022-11-12T09:55:38.702Z,23.52
2022-11-12T09:58:26.026Z,25.98
2022-11-12T10:01:14.092Z,27.05
2022-11-12T10:04:19.686Z,28.75
2022-11-12T10:07:33.216Z,29.91
2022-11-12T10:10:28.511Z,29.34
2022-11-12T10:13:44.925Z,30.74
2022-11-12T10:16:56.311Z,30.29
2022-11-12T10:20:01.655Z,30.95
2022-11-12T10:23:06.929Z,30.31
2022-11-12T10:25:58.175Z,31.28
2022-11-12T10:28:58.721Z,32.50
2022-11-12T10:31:45.081Z,31.84
2022-11-12T10:34:31.333Z,32.48
2022-11-12T10:37:25.729Z,33.64
2022-11-12T10:40:21.135Z,33.29
2022-11-12T10:43:16.356Z,33.03
2022-11-12T10:46:20.482Z,34.29
2022-11-12T10:49:23.475Z,33.91
2022-11-12T10:52:24.535Z,34.55
2022-11-12T10:55:28.552Z,33.54
2022-11-12T10:58:19.635Z,33.73
2022-11-12T11:01:14.749Z,34.90
2022-11-12T11:04:01.666Z,35.63
2022-11-12T11:06:48.571Z,32.58
2022-11-12T11:09:35.257Z,33.05
2022-11-12T11:12:30.475Z,34.91
2022-11-12T11:15:23.970Z,58.64
2022-11-12T11:18:13.620Z,58.85
2022-11-12T11:21:21.098Z,57.00
2022-11-12T11:24:19.516Z,47.62
2022-11-12T11:27:43.683Z,50.45
2022-11-12T11:30:30.514Z,48.14
2022-11-12T11:33:28.324Z,45.04
2022-11-12T11:36:56.301Z,51.70
2022-11-12T11:39:56.169Z,55.96
2022-11-12T11:43:21.020Z,59.30
2022-11-12T11:46:35.575Z,64.73
2022-11-12T11:49:37.153Z,73.14
2022-11-12T11:52:41.578Z,78.31
2022-11-12T11:55:57.861Z,80.56
2022-11-12T11:59:09.225Z,71.08
2022-11-12T12:02:02.521Z,62.35
2022-11-12T12:04:52.248Z,60.66
2022-11-12T12:08:00.493Z,60.05
2022-11-12T12:11:08.975Z,55.01
2022-11-12T12:14:33.165Z,59.33
2022-11-12T12:17:39.198Z,62.27
2022-11-12T12:20:34.278Z,58.87
2022-11-12T12:23:29.871Z,58.55
2022-11-12T12:26:27.692Z,56.37
2022-11-12T12:29:33.633Z,53.00
2022-11-12T12:32:38.193Z,50.08
2022-11-12T12:35:32.634Z,48.99
2022-11-12T12:38:29.171Z,48.94
2022-11-12T12:41:27.917Z,48.26
2022-11-12T12:44:14.331Z,47.23
2022-11-12T12:47:02.716Z,44.37
2022-11-12T12:49:51.543Z,46.28
2022-11-12T12:53:01.497Z,45.32
2022-11-12T12:55:50.402Z,41.91
2022-11-12T12:58:45.880Z,40.93
2022-11-12T13:01:35.677Z,41.30
2022-11-12T13:04:52.969Z,44.58
2022-11-12T13:07:43.238Z,44.14
2022-11-12T13:10:42.495Z,42.33
2022-11-12T13:13:32.610Z,42.67
2022-11-12T13:17:03.741Z,43.48
2022-11-12T13:19:53.133Z,49.59
2022-11-12T13:22:39.305Z,50.20
2022-11-12T13:25:28.645Z,47.09
2022-11-12T13:28:15.351Z,48.16
2022-11-12T13:31:03.764Z,47.65
2022-11-12T13:33:50.173Z,50.83
2022-11-12T13:36:36.791Z,54.53
2022-11-12T13:39:24.262Z,55.49
2022-11-12T13:42:36.046Z,59.64
2022-11-12T13:45:26.586Z,60.61
2022-11-12T13:48:23.943Z,62.71
2022-11-12T13:51:20.298Z,68.93
2022-11-12T13:54:36.104Z,68.28
2022-11-12T13:57:26.204Z,68.14
2022-11-12T14:00:21.675Z,71.38
2022-11-12T14:03:17.734Z,72.27
2022-11-12T14:06:16.441Z,79.11
2022-11-12T14:09:40.525Z,84.99
2022-11-12T14:12:32.871Z,90.14
2022-11-12T14:15:34.714Z,91.29
2022-11-12T14:18:54.795Z,89.80
2022-11-12T14:21:41.091Z,90.16
2022-11-12T14:24:27.912Z,89.49
2022-11-12T14:27:29.249Z,86.30
2022-11-12T14:30:33.581Z,83.49
2022-11-12T14:33:23.509Z,82.87
2022-11-12T14:36:13.932Z,80.62
2022-11-12T14:39:01.054Z,76.03
2022-11-12T14:41:49.307Z,75.67
2022-11-12T14:44:37.256Z,77.58
2022-11-12T14:47:24.545Z,74.83
2022-11-12T14:50:25.191Z,75.26
2022-11-12T14:53:24.816Z,80.05
2022-11-12T14:56:50.372Z,84.98
2022-11-12T14:59:36.921Z,97.41
2022-11-12T15:02:39.027Z,89.85
2022-11-12T15:05:33.647Z,91.54
2022-11-12T15:08:29.807Z,92.87
2022-11-12T15:11:21.765Z,93.04
2022-11-12T15:14:20.274Z,96.74
2022-11-12T15:17:06.986Z,96.67
2022-11-12T15:19:53.850Z,98.15
2022-11-12T15:22:40.530Z,95.97
2022-11-12T15:25:30.407Z,96.68
2022-11-12T15:28:25.314Z,99.55
2022-11-12T15:31:21.998Z,100.62
2022-11-12T15:34:31.058Z,104.38
2022-11-12T15:37:17.716Z,101.89
2022-11-12T15:40:21.301Z,103.26
2022-11-12T15:43:15.919Z,104.28
2022-11-12T15:46:02.762Z,106.86
2022-11-12T15:48:55.495Z,109.34
2022-11-12T15:51:42.828Z,108.22
2022-11-12T15:54:29.821Z,110.01
2022-11-12T15:57:16.838Z,112.09
2022-11-12T16:00:15.577Z,119.00
2022-11-12T16:03:14.760Z,130.12
2022-11-12T16:06:07.197Z,131.18
2022-11-12T16:08:55.156Z,142.03
2022-11-12T16:11:41.772Z,140.15
2022-11-12T16:14:28.339Z,145.96
2022-11-12T16:17:18.594Z,152.56
2022-11-12T16:20:35.806Z,149.78
2022-11-12T16:23:22.549Z,147.86
2022-11-12T16:26:12.236Z,144.33
2022-11-12T16:28:59.897Z,151.67
2022-11-12T16:31:46.390Z,145.55
2022-11-12T16:34:32.911Z,150.43
2022-11-12T16:37:19.507Z,147.18
2022-11-12T16:40:09.527Z,162.05
2022-11-12T16:42:56.245Z,185.53
2022-11-12T16:45:44.577Z,196.83
2022-11-12T16:48:32.365Z,191.15
2022-11-12T16:51:20.382Z,184.10
2022-11-12T16:54:07.334Z,184.96
2022-11-12T16:56:54.100Z,184.39
2022-11-12T16:59:41.852Z,185.79
2022-11-12T17:02:28.026Z,184.54
2022-11-12T17:05:20.453Z,190.79
2022-11-12T17:08:07.128Z,180.59
2022-11-12T17:10:53.828Z,177.72
2022-11-12T17:13:40.469Z,172.66
2022-11-12T17:16:28.614Z,167.11
2022-11-12T17:19:15.167Z,154.64
2022-11-12T17:22:01.759Z,144.79
2022-11-12T17:24:48.235Z,136.31
2022-11-12T17:27:35.031Z,120.16
2022-11-12T17:30:21.740Z,104.25
2022-11-12T17:33:08.728Z,99.00
2022-11-12T17:35:55.230Z,92.36
2022-11-12T17:38:42.362Z,83.06
2022-11-12T17:41:28.861Z,78.69
2022-11-12T17:44:18.114Z,75.87
2022-11-12T17:47:04.813Z,71.96
2022-11-12T17:49:51.516Z,73.10
2022-11-12T17:52:37.845Z,71.35
2022-11-12T17:55:24.513Z,67.21
2022-11-12T17:58:12.301Z,64.36
2022-11-12T18:01:18.817Z,63.65
2022-11-12T18:04:05.301Z,60.30
2022-11-12T18:06:51.971Z,59.11
2022-11-12T18:09:38.721Z,55.35
2022-11-12T18:12:25.301Z,54.46
2022-11-12T18:15:13.128Z,50.47
2022-11-12T18:17:59.760Z,46.96
2022-11-12T18:20:46.131Z,46.45
2022-11-12T18:23:37.594Z,44.32
2022-11-12T18:26:24.081Z,41.74
2022-11-12T18:29:10.787Z,42.77
2022-11-12T18:31:57.211Z,42.98
2022-11-12T18:34:45.293Z,43.35
2022-11-12T18:37:31.780Z,41.05
2022-11-12T18:40:18.184Z,41.62
2022-11-12T18:43:04.853Z,41.42
2022-11-12T18:45:55.803Z,42.26
2022-11-12T18:48:42.231Z,41.60
2022-11-12T18:51:29.195Z,38.45
2022-11-12T18:54:16.527Z,37.18
2022-11-12T18:57:03.193Z,36.86
2022-11-12T18:59:52.661Z,36.54
2022-11-12T19:02:39.507Z,35.90
2022-11-12T19:05:26.197Z,37.57
2022-11-12T19:08:12.814Z,36.28
2022-11-12T19:10:59.719Z,36.11
2022-11-12T19:13:50.979Z,36.56
2022-11-12T19:16:42.464Z,35.59
2022-11-12T19:19:29.214Z,36.53
2022-11-12T19:22:15.779Z,36.23
2022-11-12T19:25:02.906Z,35.21
2022-11-12T19:27:49.593Z,35.79
2022-11-12T19:30:37.072Z,34.52
2022-11-12T19:33:24.336Z,34.77
2022-11-12T19:36:14.291Z,42.16
2022-11-12T19:39:02.651Z,40.18
2022-11-12T19:41:48.968Z,40.51
2022-11-12T19:44:35.828Z,40.10
2022-11-12T19:47:22.383Z,37.17
2022-11-12T19:50:09.658Z,38.59
2022-11-12T19:52:56.934Z,38.15
2022-11-12T19:55:43.666Z,37.60
2022-11-12T19:58:32.055Z,38.68
2022-11-12T20:01:19.557Z,39.59
2022-11-12T20:04:06.135Z,39.43
2022-11-12T20:06:52.812Z,38.55
2022-11-12T20:09:39.313Z,41.24
2022-11-12T20:12:26.412Z,43.37
2022-11-12T20:15:13.081Z,43.08
2022-11-12T20:18:00.076Z,40.32
2022-11-12T20:20:56.621Z,34.36
2022-11-12T20:23:43.291Z,30.47
2022-11-12T20:26:30.426Z,28.41
2022-11-12T20:29:17.188Z,28.04
2022-11-12T20:32:03.902Z,27.74
2022-11-12T20:34:50.970Z,27.79
2022-11-12T20:37:37.283Z,30.62
2022-11-12T20:40:23.439Z,32.81
2022-11-12T20:43:09.797Z,44.56
2022-11-12T20:45:56.580Z,50.61
2022-11-12T20:48:43.867Z,57.09
2022-11-12T20:51:30.608Z,56.47
2022-11-12T20:54:20.875Z,77.67
2022-11-12T20:57:07.999Z,82.74
2022-11-12T20:59:54.537Z,80.85
2022-11-12T21:02:41.573Z,91.77
2022-11-12T21:05:28.153Z,95.02
2022-11-12T21:08:14.661Z,95.54
2022-11-12T21:11:03.628Z,92.45
2022-11-12T21:13:50.342Z,84.59
2022-11-12T21:16:36.770Z,91.50
2022-11-12T21:19:23.655Z,103.57
2022-11-12T21:22:10.085Z,100.68
2022-11-12T21:24:56.362Z,105.68
2022-11-12T21:27:42.842Z,97.55
2022-11-12T21:30:29.299Z,92.88
2022-11-12T21:33:15.680Z,74.42
2022-11-12T21:36:05.259Z,75.36
2022-11-12T21:38:51.555Z,60.15
2022-11-12T21:41:38.145Z,54.59
2022-11-12T21:44:24.620Z,43.47
2022-11-12T21:47:11.314Z,38.69
2022-11-12T21:49:58.037Z,38.21
2022-11-12T21:52:44.637Z,37.72
2022-11-12T21:55:31.076Z,38.87
2022-11-12T21:58:17.782Z,38.48
2022-11-12T22:01:11.420Z,40.79
2022-11-12T22:03:59.827Z,39.83
2022-11-12T22:06:46.460Z,39.81
2022-11-12T22:09:33.309Z,39.66
2022-11-12T22:12:19.896Z,41.71
2022-11-12T22:15:06.976Z,45.75
2022-11-12T22:17:54.419Z,46.68
2022-11-12T22:20:40.857Z,44.92
2022-11-12T22:23:27.303Z,40.87
2022-11-12T22:26:17.450Z,37.34
2022-11-12T22:29:04.207Z,32.59
2022-11-12T22:31:50.562Z,30.21
2022-11-12T22:34:37.154Z,27.62
2022-11-12T22:37:23.671Z,26.39
2022-11-12T22:40:13.537Z,23.89
2022-11-12T22:43:01.034Z,22.23
2022-11-12T22:45:47.488Z,20.95
2022-11-12T22:48:34.374Z,20.02
2022-11-12T22:51:29.177Z,20.64
2022-11-12T22:54:18.054Z,28.31
2022-11-12T22:57:04.506Z,31.92
2022-11-12T22:59:51.080Z,31.04
2022-11-12T23:02:37.491Z,32.57
2022-11-12T23:05:24.439Z,34.43
2022-11-12T23:08:11.846Z,37.62
2022-11-12T23:11:04.302Z,40.56
2022-11-12T23:13:50.748Z,45.95
2022-11-12T23:16:37.651Z,54.36
2022-11-12T23:19:24.181Z,61.73
2022-11-12T23:22:11.704Z,71.58
2022-11-12T23:24:58.205Z,82.33
2022-11-12T23:27:45.066Z,82.91
2022-11-12T23:30:31.403Z,82.85
2022-11-12T23:33:19.008Z,75.54
2022-11-12T23:36:10.615Z,70.39
2022-11-12T23:38:58.565Z,64.41
2022-11-12T23:41:45.119Z,60.31
2022-11-12T23:44:31.689Z,56.61
2022-11-12T23:47:17.977Z,50.15
2022-11-12T23:50:05.600Z,48.97
2022-11-12T23:52:52.113Z,48.81
2022-11-12T23:55:38.799Z,48.68
2022-11-12T23:58:26.059Z,50.96
